sensor_id;sensor_type;location;lat;lon;timestamp;pressure;altitude;pressure_sealevel;temperature;humidity
68476;BME280;55464;48.266;14.188;2023-07-13T00:00:12;97651.47;;;20.21;80.85
68476;BME280;55464;48.266;14.188;2023-07-13T00:02:40;97649.47;;;20.25;81.21
68476;BME280;55464;48.266;14.188;2023-07-13T00:05:06;97637.00;;;20.30;80.28
68476;BME280;55464;48.266;14.188;2023-07-13T00:07:31;97637.03;;;20.26;80.52
68476;BME280;55464;48.266;14.188;2023-07-13T00:09:57;97637.78;;;20.34;81.24
68476;BME280;55464;48.266;14.188;2023-07-13T00:12:28;97637.75;;;20.37;80.87
68476;BME280;55464;48.266;14.188;2023-07-13T00:14:56;97641.75;;;20.36;80.96
68476;BME280;55464;48.266;14.188;2023-07-13T00:17:22;97642.50;;;20.40;80.58
68476;BME280;55464;48.266;14.188;2023-07-13T00:19:47;97642.09;;;20.42;80.20
68476;BME280;55464;48.266;14.188;2023-07-13T00:22:13;97660.94;;;20.38;80.10
68476;BME280;55464;48.266;14.188;2023-07-13T00:24:38;97664.19;;;20.33;80.32
68476;BME280;55464;48.266;14.188;2023-07-13T00:27:08;97667.34;;;20.35;80.24
68476;BME280;55464;48.266;14.188;2023-07-13T00:29:34;97657.06;;;20.21;80.51
68476;BME280;55464;48.266;14.188;2023-07-13T00:32:00;97646.75;;;20.11;81.36
68476;BME280;55464;48.266;14.188;2023-07-13T00:34:25;97639.97;;;20.12;81.29
68476;BME280;55464;48.266;14.188;2023-07-13T00:36:51;97643.19;;;20.10;81.47
68476;BME280;55464;48.266;14.188;2023-07-13T00:39:16;97649.59;;;20.07;82.04
68476;BME280;55464;48.266;14.188;2023-07-13T00:41:42;97645.97;;;20.10;81.77
68476;BME280;55464;48.266;14.188;2023-07-13T00:44:19;97643.56;;;20.12;81.33
68476;BME280;55464;48.266;14.188;2023-07-13T00:46:45;97636.34;;;20.15;81.58
68476;BME280;55464;48.266;14.188;2023-07-13T00:49:13;97636.66;;;20.24;81.41
68476;BME280;55464;48.266;14.188;2023-07-13T00:51:46;97615.94;;;20.18;80.12
68476;BME280;55464;48.266;14.188;2023-07-13T00:54:17;97608.06;;;20.06;80.79
68476;BME280;55464;48.266;14.188;2023-07-13T00:56:45;97618.03;;;20.07;80.69
68476;BME280;55464;48.266;14.188;2023-07-13T00:59:13;97636.31;;;20.18;80.64
68476;BME280;55464;48.266;14.188;2023-07-13T01:01:40;97624.75;;;20.16;79.93
68476;BME280;55464;48.266;14.188;2023-07-13T01:04:06;97629.09;;;20.21;80.12
68476;BME280;55464;48.266;14.188;2023-07-13T01:06:35;97634.28;;;20.23;80.29
68476;BME280;55464;48.266;14.188;2023-07-13T01:09:01;97647.44;;;20.26;80.28
68476;BME280;55464;48.266;14.188;2023-07-13T01:11:27;97645.81;;;20.28;80.01
68476;BME280;55464;48.266;14.188;2023-07-13T01:13:52;97647.84;;;20.28;79.84
68476;BME280;55464;48.266;14.188;2023-07-13T01:16:27;97667.00;;;20.29;80.32
68476;BME280;55464;48.266;14.188;2023-07-13T01:18:54;97669.00;;;20.32;80.32
68476;BME280;55464;48.266;14.188;2023-07-13T01:21:23;97670.97;;;20.35;80.15
68476;BME280;55464;48.266;14.188;2023-07-13T01:23:48;97662.56;;;20.35;79.74
68476;BME280;55464;48.266;14.188;2023-07-13T01:26:13;97663.78;;;20.34;80.10
68476;BME280;55464;48.266;14.188;2023-07-13T01:28:39;97675.75;;;20.35;79.92
68476;BME280;55464;48.266;14.188;2023-07-13T01:31:04;97674.16;;;20.37;80.38
68476;BME280;55464;48.266;14.188;2023-07-13T01:33:30;97672.56;;;20.33;80.24
68476;BME280;55464;48.266;14.188;2023-07-13T01:35:55;97680.22;;;20.29;80.66
68476;BME280;55464;48.266;14.188;2023-07-13T01:38:24;97686.59;;;20.29;81.03
68476;BME280;55464;48.266;14.188;2023-07-13T01:40:53;97684.97;;;20.32;80.97
68476;BME280;55464;48.266;14.188;2023-07-13T01:43:19;97688.59;;;20.32;81.01
68476;BME280;55464;48.266;14.188;2023-07-13T01:45:45;97696.94;;;20.36;80.62
68476;BME280;55464;48.266;14.188;2023-07-13T01:48:11;97696.13;;;20.39;80.21
68476;BME280;55464;48.266;14.188;2023-07-13T01:50:37;97703.72;;;20.38;80.24
68476;BME280;55464;48.266;14.188;2023-07-13T01:53:02;97694.56;;;20.34;80.31
68476;BME280;55464;48.266;14.188;2023-07-13T01:55:28;97700.53;;;20.36;80.75
68476;BME280;55464;48.266;14.188;2023-07-13T01:57:55;97699.81;;;20.29;80.89
68476;BME280;55464;48.266;14.188;2023-07-13T02:00:20;97703.06;;;20.20;81.27
68476;BME280;55464;48.266;14.188;2023-07-13T02:02:46;97697.47;;;20.20;81.36
68476;BME280;55464;48.266;14.188;2023-07-13T02:05:13;97693.91;;;20.12;81.55
68476;BME280;55464;48.266;14.188;2023-07-13T02:07:39;97695.53;;;20.13;81.49
68476;BME280;55464;48.266;14.188;2023-07-13T02:10:06;97696.25;;;20.21;81.58
68476;BME280;55464;48.266;14.188;2023-07-13T02:12:33;97693.03;;;20.23;81.55
68476;BME280;55464;48.266;14.188;2023-07-13T02:14:58;97705.03;;;20.27;80.68
68476;BME280;55464;48.266;14.188;2023-07-13T02:17:24;97699.81;;;20.29;80.40
68476;BME280;55464;48.266;14.188;2023-07-13T02:19:49;97701.00;;;20.28;80.42
68476;BME280;55464;48.266;14.188;2023-07-13T02:22:14;97700.63;;;20.26;80.14
68476;BME280;55464;48.266;14.188;2023-07-13T02:24:40;97700.69;;;20.18;80.47
68476;BME280;55464;48.266;14.188;2023-07-13T02:27:05;97697.88;;;20.18;80.94
68476;BME280;55464;48.266;14.188;2023-07-13T02:29:31;97705.91;;;20.16;81.35
68476;BME280;55464;48.266;14.188;2023-07-13T02:31:56;97704.69;;;20.14;81.60
68476;BME280;55464;48.266;14.188;2023-07-13T02:34:22;97708.31;;;20.11;80.90
68476;BME280;55464;48.266;14.188;2023-07-13T02:36:47;97707.94;;;20.09;81.40
68476;BME280;55464;48.266;14.188;2023-07-13T02:39:13;97704.81;;;19.96;82.24
68476;BME280;55464;48.266;14.188;2023-07-13T02:41:39;97703.19;;;19.98;82.17
68476;BME280;55464;48.266;14.188;2023-07-13T02:44:04;97692.88;;;19.92;82.39
68476;BME280;55464;48.266;14.188;2023-07-13T02:46:34;97691.97;;;20.02;82.43
68476;BME280;55464;48.266;14.188;2023-07-13T02:49:00;97687.22;;;20.02;82.27
68476;BME280;55464;48.266;14.188;2023-07-13T02:51:26;97686.78;;;20.04;82.02
68476;BME280;55464;48.266;14.188;2023-07-13T02:53:51;97676.81;;;19.99;82.07
68476;BME280;55464;48.266;14.188;2023-07-13T02:56:21;97667.66;;;19.99;82.21
68476;BME280;55464;48.266;14.188;2023-07-13T02:58:47;97664.81;;;20.02;82.30
68476;BME280;55464;48.266;14.188;2023-07-13T03:01:13;97659.19;;;20.06;81.92
68476;BME280;55464;48.266;14.188;2023-07-13T03:03:43;97649.22;;;20.05;82.07
68476;BME280;55464;48.266;14.188;2023-07-13T03:06:08;97654.78;;;20.09;81.72
68476;BME280;55464;48.266;14.188;2023-07-13T03:08:34;97659.16;;;20.13;81.71
68476;BME280;55464;48.266;14.188;2023-07-13T03:11:06;97645.66;;;20.01;81.64
68476;BME280;55464;48.266;14.188;2023-07-13T03:13:32;97662.38;;;20.08;81.50
68476;BME280;55464;48.266;14.188;2023-07-13T03:15:58;97656.78;;;20.08;81.56
68476;BME280;55464;48.266;14.188;2023-07-13T03:18:25;97662.41;;;20.05;81.47
68476;BME280;55464;48.266;14.188;2023-07-13T03:20:51;97657.63;;;20.01;81.42
68476;BME280;55464;48.266;14.188;2023-07-13T03:23:16;97658.81;;;20.04;81.40
68476;BME280;55464;48.266;14.188;2023-07-13T03:25:42;97660.44;;;19.98;81.56
68476;BME280;55464;48.266;14.188;2023-07-13T03:28:07;97661.19;;;20.09;81.39
68476;BME280;55464;48.266;14.188;2023-07-13T03:30:33;97657.53;;;20.12;81.95
68476;BME280;55464;48.266;14.188;2023-07-13T03:32:58;97663.53;;;20.11;81.82
68476;BME280;55464;48.266;14.188;2023-07-13T03:35:24;97664.75;;;20.13;82.06
68476;BME280;55464;48.266;14.188;2023-07-13T03:37:49;97663.94;;;20.16;81.45
68476;BME280;55464;48.266;14.188;2023-07-13T03:40:16;97670.69;;;20.19;81.54
68476;BME280;55464;48.266;14.188;2023-07-13T03:42:41;97661.50;;;20.18;81.35
68476;BME280;55464;48.266;14.188;2023-07-13T03:45:07;97657.94;;;20.14;80.93
68476;BME280;55464;48.266;14.188;2023-07-13T03:47:32;97661.50;;;20.18;81.20
68476;BME280;55464;48.266;14.188;2023-07-13T03:49:58;97659.84;;;20.25;81.29
68476;BME280;55464;48.266;14.188;2023-07-13T03:52:23;97661.81;;;20.28;81.46
68476;BME280;55464;48.266;14.188;2023-07-13T03:54:49;97661.81;;;20.28;80.53
68476;BME280;55464;48.266;14.188;2023-07-13T03:57:14;97672.22;;;20.27;81.04
68476;BME280;55464;48.266;14.188;2023-07-13T03:59:39;97671.47;;;20.23;81.61
68476;BME280;55464;48.266;14.188;2023-07-13T04:02:05;97675.03;;;20.27;81.67
68476;BME280;55464;48.266;14.188;2023-07-13T04:04:30;97647.94;;;20.17;81.63
68476;BME280;55464;48.266;14.188;2023-07-13T04:06:57;97657.88;;;20.21;81.37
68476;BME280;55464;48.266;14.188;2023-07-13T04:09:24;97655.84;;;20.26;81.62
68476;BME280;55464;48.266;14.188;2023-07-13T04:11:50;97655.88;;;20.22;81.08
68476;BME280;55464;48.266;14.188;2023-07-13T04:14:16;97661.09;;;20.20;81.66
68476;BME280;55464;48.266;14.188;2023-07-13T04:16:42;97650.69;;;20.20;81.45
68476;BME280;55464;48.266;14.188;2023-07-13T04:19:08;97663.84;;;20.27;81.48
68476;BME280;55464;48.266;14.188;2023-07-13T04:21:36;97669.00;;;20.32;81.73
68476;BME280;55464;48.266;14.188;2023-07-13T04:24:02;97674.56;;;20.36;81.42
68476;BME280;55464;48.266;14.188;2023-07-13T04:26:28;97667.31;;;20.38;81.38
68476;BME280;55464;48.266;14.188;2023-07-13T04:28:54;97668.53;;;20.41;81.13
68476;BME280;55464;48.266;14.188;2023-07-13T04:31:20;97657.34;;;20.37;81.73
68476;BME280;55464;48.266;14.188;2023-07-13T04:33:46;97671.69;;;20.43;81.39
68476;BME280;55464;48.266;14.188;2023-07-13T04:36:11;97666.50;;;20.42;81.35
68476;BME280;55464;48.266;14.188;2023-07-13T04:38:37;97658.56;;;20.36;81.62
68476;BME280;55464;48.266;14.188;2023-07-13T04:41:05;97670.50;;;20.40;82.02
68476;BME280;55464;48.266;14.188;2023-07-13T04:43:32;97655.38;;;20.34;81.54
68476;BME280;55464;48.266;14.188;2023-07-13T04:46:06;97669.72;;;20.40;82.04
68476;BME280;55464;48.266;14.188;2023-07-13T04:48:32;97668.09;;;20.43;81.87
68476;BME280;55464;48.266;14.188;2023-07-13T04:50:58;97665.31;;;20.43;82.09
68476;BME280;55464;48.266;14.188;2023-07-13T04:53:24;97684.47;;;20.48;81.88
68476;BME280;55464;48.266;14.188;2023-07-13T04:55:50;97673.69;;;20.46;81.96
68476;BME280;55464;48.266;14.188;2023-07-13T04:58:16;97674.09;;;20.45;82.23
68476;BME280;55464;48.266;14.188;2023-07-13T05:00:41;97670.91;;;20.43;82.57
68476;BME280;55464;48.266;14.188;2023-07-13T05:03:07;97677.22;;;20.50;82.52
68476;BME280;55464;48.266;14.188;2023-07-13T05:05:32;97681.66;;;20.48;82.17
68476;BME280;55464;48.266;14.188;2023-07-13T05:07:58;97680.41;;;20.52;82.20
68476;BME280;55464;48.266;14.188;2023-07-13T05:10:23;97676.81;;;20.52;81.75
68476;BME280;55464;48.266;14.188;2023-07-13T05:12:49;97679.59;;;20.55;82.45
68476;BME280;55464;48.266;14.188;2023-07-13T05:15:15;97684.78;;;20.57;81.99
68476;BME280;55464;48.266;14.188;2023-07-13T05:17:46;97684.41;;;20.55;80.94
68476;BME280;55464;48.266;14.188;2023-07-13T05:20:11;97687.16;;;20.58;81.12
68476;BME280;55464;48.266;14.188;2023-07-13T05:22:37;97684.38;;;20.58;81.88
68476;BME280;55464;48.266;14.188;2023-07-13T05:25:06;97686.75;;;20.60;81.83
68476;BME280;55464;48.266;14.188;2023-07-13T05:27:33;97695.56;;;20.62;81.43
68476;BME280;55464;48.266;14.188;2023-07-13T05:29:58;97695.16;;;20.64;81.58
68476;BME280;55464;48.266;14.188;2023-07-13T05:32:23;97679.94;;;20.61;81.38
68476;BME280;55464;48.266;14.188;2023-07-13T05:34:49;97698.69;;;20.68;81.46
68476;BME280;55464;48.266;14.188;2023-07-13T05:37:14;97699.84;;;20.70;81.39
68476;BME280;55464;48.266;14.188;2023-07-13T05:39:40;97701.13;;;20.66;81.42
68476;BME280;55464;48.266;14.188;2023-07-13T05:42:05;97701.16;;;20.62;81.64
68476;BME280;55464;48.266;14.188;2023-07-13T05:44:31;97692.38;;;20.56;81.59
68476;BME280;55464;48.266;14.188;2023-07-13T05:46:56;97707.13;;;20.61;81.81
68476;BME280;55464;48.266;14.188;2023-07-13T05:49:22;97705.94;;;20.65;81.75
68476;BME280;55464;48.266;14.188;2023-07-13T05:51:48;97690.72;;;20.66;81.66
68476;BME280;55464;48.266;14.188;2023-07-13T05:54:14;97693.91;;;20.65;81.24
68476;BME280;55464;48.266;14.188;2023-07-13T05:56:39;97705.13;;;20.65;81.33
68476;BME280;55464;48.266;14.188;2023-07-13T05:59:05;97713.50;;;20.68;81.73
68476;BME280;55464;48.266;14.188;2023-07-13T06:01:31;97708.66;;;20.72;81.27
68476;BME280;55464;48.266;14.188;2023-07-13T06:03:57;97710.28;;;20.70;81.45
68476;BME280;55464;48.266;14.188;2023-07-13T06:06:22;97702.28;;;20.68;81.72
68476;BME280;55464;48.266;14.188;2023-07-13T06:08:48;97700.34;;;20.62;81.13
68476;BME280;55464;48.266;14.188;2023-07-13T06:11:18;97714.31;;;20.69;81.62
68476;BME280;55464;48.266;14.188;2023-07-13T06:13:44;97721.09;;;20.68;81.06
68476;BME280;55464;48.266;14.188;2023-07-13T06:16:10;97707.88;;;20.68;81.31
68476;BME280;55464;48.266;14.188;2023-07-13T06:18:37;97717.06;;;20.72;81.32
68476;BME280;55464;48.266;14.188;2023-07-13T06:21:07;97715.88;;;20.70;81.10
68476;BME280;55464;48.266;14.188;2023-07-13T06:23:33;97723.91;;;20.68;81.47
68476;BME280;55464;48.266;14.188;2023-07-13T06:25:58;97729.47;;;20.71;81.54
68476;BME280;55464;48.266;14.188;2023-07-13T06:28:24;97731.44;;;20.74;81.25
68476;BME280;55464;48.266;14.188;2023-07-13T06:30:49;97733.84;;;20.76;80.87
68476;BME280;55464;48.266;14.188;2023-07-13T06:33:15;97739.06;;;20.74;80.74
68476;BME280;55464;48.266;14.188;2023-07-13T06:35:40;97734.66;;;20.73;80.47
68476;BME280;55464;48.266;14.188;2023-07-13T06:38:05;97741.38;;;20.79;80.90
68476;BME280;55464;48.266;14.188;2023-07-13T06:40:31;97736.22;;;20.77;80.61
68476;BME280;55464;48.266;14.188;2023-07-13T06:42:56;97749.81;;;20.75;80.59
68476;BME280;55464;48.266;14.188;2023-07-13T06:45:22;97737.44;;;20.76;80.56
68476;BME280;55464;48.266;14.188;2023-07-13T06:47:48;97742.31;;;20.69;80.81
68476;BME280;55464;48.266;14.188;2023-07-13T06:50:14;97730.25;;;20.72;81.05
68476;BME280;55464;48.266;14.188;2023-07-13T06:52:40;97736.22;;;20.77;81.00
68476;BME280;55464;48.266;14.188;2023-07-13T06:55:05;97743.44;;;20.75;79.89
68476;BME280;55464;48.266;14.188;2023-07-13T06:57:31;97741.03;;;20.73;80.76
68476;BME280;55464;48.266;14.188;2023-07-13T07:02:22;97761.78;;;20.83;80.36
68476;BME280;55464;48.266;14.188;2023-07-13T07:04:48;97764.53;;;20.87;79.71
68476;BME280;55464;48.266;14.188;2023-07-13T07:07:13;97766.56;;;20.83;79.79
68476;BME280;55464;48.266;14.188;2023-07-13T07:09:38;97773.38;;;20.85;80.02
68476;BME280;55464;48.266;14.188;2023-07-13T07:12:04;97760.56;;;20.84;79.22
68476;BME280;55464;48.266;14.188;2023-07-13T07:14:30;97762.56;;;20.84;79.23
68476;BME280;55464;48.266;14.188;2023-07-13T07:16:55;97772.50;;;20.92;78.74
68476;BME280;55464;48.266;14.188;2023-07-13T07:19:21;97771.69;;;20.91;79.46
68476;BME280;55464;48.266;14.188;2023-07-13T07:21:46;97772.47;;;20.95;79.17
68476;BME280;55464;48.266;14.188;2023-07-13T07:24:11;97774.50;;;20.95;78.22
68476;BME280;55464;48.266;14.188;2023-07-13T07:26:37;97780.03;;;21.02;79.00
68476;BME280;55464;48.266;14.188;2023-07-13T07:29:02;97781.56;;;21.07;77.96
68476;BME280;55464;48.266;14.188;2023-07-13T07:31:28;97780.31;;;21.11;77.13
68476;BME280;55464;48.266;14.188;2023-07-13T07:33:53;97777.97;;;21.06;77.50
68476;BME280;55464;48.266;14.188;2023-07-13T07:36:19;97767.50;;;21.10;77.48
68476;BME280;55464;48.266;14.188;2023-07-13T07:38:44;97776.28;;;21.12;76.98
68476;BME280;55464;48.266;14.188;2023-07-13T07:41:12;97776.66;;;21.18;76.87
68476;BME280;55464;48.266;14.188;2023-07-13T07:43:37;97786.66;;;21.19;76.82
68476;BME280;55464;48.266;14.188;2023-07-13T07:46:03;97772.41;;;21.41;75.53
68476;BME280;55464;48.266;14.188;2023-07-13T07:48:28;97777.34;;;21.29;76.28
68476;BME280;55464;48.266;14.188;2023-07-13T07:50:54;97781.78;;;21.27;76.10
68476;BME280;55464;48.266;14.188;2023-07-13T07:53:19;97787.69;;;21.36;75.44
68476;BME280;55464;48.266;14.188;2023-07-13T07:55:45;97781.59;;;21.45;74.47
68476;BME280;55464;48.266;14.188;2023-07-13T07:58:10;97782.13;;;21.32;75.27
68476;BME280;55464;48.266;14.188;2023-07-13T08:00:36;97785.78;;;21.26;75.77
68476;BME280;55464;48.266;14.188;2023-07-13T08:03:01;97785.41;;;21.24;75.94
68476;BME280;55464;48.266;14.188;2023-07-13T08:05:28;97784.25;;;21.18;76.75
68476;BME280;55464;48.266;14.188;2023-07-13T08:07:53;97791.44;;;21.22;75.58
68476;BME280;55464;48.266;14.188;2023-07-13T08:10:19;97801.38;;;21.30;75.04
68476;BME280;55464;48.266;14.188;2023-07-13T08:12:44;97799.72;;;21.33;74.56
68476;BME280;55464;48.266;14.188;2023-07-13T08:15:13;97796.91;;;21.33;74.37
68476;BME280;55464;48.266;14.188;2023-07-13T08:17:38;97800.16;;;21.28;74.10
68476;BME280;55464;48.266;14.188;2023-07-13T08:20:04;97805.84;;;21.21;74.83
68476;BME280;55464;48.266;14.188;2023-07-13T08:22:30;97797.84;;;21.19;74.72
68476;BME280;55464;48.266;14.188;2023-07-13T08:24:55;97804.28;;;21.20;75.27
68476;BME280;55464;48.266;14.188;2023-07-13T08:27:25;97807.50;;;21.18;75.92
68476;BME280;55464;48.266;14.188;2023-07-13T08:29:51;97821.88;;;21.20;74.91
68476;BME280;55464;48.266;14.188;2023-07-13T08:32:18;97835.47;;;21.22;75.74
68476;BME280;55464;48.266;14.188;2023-07-13T08:34:44;97831.81;;;21.28;73.43
68476;BME280;55464;48.266;14.188;2023-07-13T08:37:09;97845.44;;;21.26;74.11
68476;BME280;55464;48.266;14.188;2023-07-13T08:39:35;97844.16;;;21.34;72.71
68476;BME280;55464;48.266;14.188;2023-07-13T08:47:15;97849.09;;;21.23;74.31
68476;BME280;55464;48.266;14.188;2023-07-13T08:49:43;97843.47;;;21.23;73.41
68476;BME280;55464;48.266;14.188;2023-07-13T08:54:45;97837.34;;;21.36;72.56
68476;BME280;55464;48.266;14.188;2023-07-13T08:57:17;97851.00;;;21.30;73.42
68476;BME280;55464;48.266;14.188;2023-07-13T08:59:44;97846.69;;;21.22;74.59
68476;BME280;55464;48.266;14.188;2023-07-13T09:04:54;97847.44;;;21.26;73.01
68476;BME280;55464;48.266;14.188;2023-07-13T09:07:26;97846.25;;;21.27;73.34
68476;BME280;55464;48.266;14.188;2023-07-13T09:12:44;97848.16;;;21.33;73.63
68476;BME280;55464;48.266;14.188;2023-07-13T09:15:31;97844.53;;;21.37;73.92
68476;BME280;55464;48.266;14.188;2023-07-13T09:18:12;97849.69;;;21.42;73.20
68476;BME280;55464;48.266;14.188;2023-07-13T09:20:46;97862.44;;;21.53;71.85
68476;BME280;55464;48.266;14.188;2023-07-13T09:23:20;97865.56;;;21.59;71.93
68476;BME280;55464;48.266;14.188;2023-07-13T09:25:53;97865.25;;;21.53;71.17
68476;BME280;55464;48.266;14.188;2023-07-13T09:28:27;97860.41;;;21.54;70.08
68476;BME280;55464;48.266;14.188;2023-07-13T09:31:01;97868.44;;;21.52;70.69
68476;BME280;55464;48.266;14.188;2023-07-13T09:33:28;97866.41;;;21.56;70.14
68476;BME280;55464;48.266;14.188;2023-07-13T09:35:56;97858.84;;;21.53;69.66
68476;BME280;55464;48.266;14.188;2023-07-13T09:38:28;97864.50;;;21.49;70.45
68476;BME280;55464;48.266;14.188;2023-07-13T09:41:20;97869.66;;;21.55;70.44
68476;BME280;55464;48.266;14.188;2023-07-13T09:44:07;97880.81;;;21.58;69.93
68476;BME280;55464;48.266;14.188;2023-07-13T09:46:37;97882.09;;;21.50;69.26
68476;BME280;55464;48.266;14.188;2023-07-13T09:49:03;97884.84;;;21.57;69.27
68476;BME280;55464;48.266;14.188;2023-07-13T09:51:29;97879.28;;;21.50;70.10
68476;BME280;55464;48.266;14.188;2023-07-13T09:53:55;97876.44;;;21.53;69.98
68476;BME280;55464;48.266;14.188;2023-07-13T09:56:30;97886.88;;;21.53;70.08
68476;BME280;55464;48.266;14.188;2023-07-13T09:58:57;97875.22;;;21.58;70.38
68476;BME280;55464;48.266;14.188;2023-07-13T10:01:37;97879.25;;;21.53;71.60
68476;BME280;55464;48.266;14.188;2023-07-13T10:04:12;97874.03;;;21.56;70.25
68476;BME280;55464;48.266;14.188;2023-07-13T10:06:39;97876.69;;;21.70;67.83
68476;BME280;55464;48.266;14.188;2023-07-13T10:09:08;97877.09;;;21.68;68.80
68476;BME280;55464;48.266;14.188;2023-07-13T10:11:35;97881.94;;;21.64;68.91
68476;BME280;55464;48.266;14.188;2023-07-13T10:14:03;97882.75;;;21.65;68.56
68476;BME280;55464;48.266;14.188;2023-07-13T10:16:35;97880.34;;;21.67;69.50
68476;BME280;55464;48.266;14.188;2023-07-13T10:19:29;97874.84;;;21.90;67.60
68476;BME280;55464;48.266;14.188;2023-07-13T10:22:26;97891.03;;;21.79;68.01
68476;BME280;55464;48.266;14.188;2023-07-13T10:24:53;97880.44;;;21.94;66.60
68476;BME280;55464;48.266;14.188;2023-07-13T10:27:40;97872.84;;;21.91;67.23
68476;BME280;55464;48.266;14.188;2023-07-13T10:30:23;97866.19;;;21.78;67.64
68476;BME280;55464;48.266;14.188;2023-07-13T10:32:58;97862.19;;;21.75;68.97
68476;BME280;55464;48.266;14.188;2023-07-13T10:35:26;97876.50;;;21.84;67.96
68476;BME280;55464;48.266;14.188;2023-07-13T10:40:27;97869.28;;;21.87;67.32
68476;BME280;55464;48.266;14.188;2023-07-13T10:42:58;97876.50;;;21.88;68.50
68476;BME280;55464;48.266;14.188;2023-07-13T10:45:26;97877.19;;;21.96;66.36
68476;BME280;55464;48.266;14.188;2023-07-13T10:47:55;97875.13;;;22.00;65.82
68476;BME280;55464;48.266;14.188;2023-07-13T10:50:26;97868.31;;;22.01;65.64
68476;BME280;55464;48.266;14.188;2023-07-13T10:53:01;97867.53;;;22.00;66.24
68476;BME280;55464;48.266;14.188;2023-07-13T10:58:14;97872.69;;;22.05;67.10
68476;BME280;55464;48.266;14.188;2023-07-13T11:00:47;97880.28;;;22.05;66.73
68476;BME280;55464;48.266;14.188;2023-07-13T11:03:15;97895.00;;;22.16;65.87
68476;BME280;55464;48.266;14.188;2023-07-13T11:05:42;97877.03;;;22.10;66.32
68476;BME280;55464;48.266;14.188;2023-07-13T11:08:32;97883.00;;;22.12;65.68
68476;BME280;55464;48.266;14.188;2023-07-13T11:10:58;97871.78;;;22.12;63.65
68476;BME280;55464;48.266;14.188;2023-07-13T11:16:12;97882.56;;;22.17;63.61
68476;BME280;55464;48.266;14.188;2023-07-13T11:18:38;97877.91;;;22.03;64.16
68476;BME280;55464;48.266;14.188;2023-07-13T11:21:20;97845.16;;;21.93;65.03
68476;BME280;55464;48.266;14.188;2023-07-13T11:24:03;97860.19;;;22.10;66.21
68476;BME280;55464;48.266;14.188;2023-07-13T11:26:39;97861.69;;;22.18;65.24
68476;BME280;55464;48.266;14.188;2023-07-13T11:31:58;97858.94;;;22.15;68.92
68476;BME280;55464;48.266;14.188;2023-07-13T11:34:35;97850.19;;;22.09;68.39
68476;BME280;55464;48.266;14.188;2023-07-13T11:37:02;97858.66;;;22.05;69.70
68476;BME280;55464;48.266;14.188;2023-07-13T11:39:39;97862.72;;;22.01;71.04
68476;BME280;55464;48.266;14.188;2023-07-13T11:42:11;97860.69;;;22.01;70.10
68476;BME280;55464;48.266;14.188;2023-07-13T11:44:42;97857.94;;;21.98;70.67
68476;BME280;55464;48.266;14.188;2023-07-13T11:47:10;97859.16;;;21.97;70.11
68476;BME280;55464;48.266;14.188;2023-07-13T11:49:44;97868.22;;;22.08;69.50
68476;BME280;55464;48.266;14.188;2023-07-13T11:52:23;97856.25;;;22.04;70.15
68476;BME280;55464;48.266;14.188;2023-07-13T11:54:52;97877.47;;;22.05;69.25
68476;BME280;55464;48.266;14.188;2023-07-13T11:59:53;97874.41;;;22.30;68.89
68476;BME280;55464;48.266;14.188;2023-07-13T12:02:40;97863.03;;;22.41;69.95
68476;BME280;55464;48.266;14.188;2023-07-13T12:05:10;97856.00;;;22.56;67.63
68476;BME280;55464;48.266;14.188;2023-07-13T12:07:37;97867.13;;;22.63;69.90
68476;BME280;55464;48.266;14.188;2023-07-13T12:10:27;97850.00;;;22.54;67.11
68476;BME280;55464;48.266;14.188;2023-07-13T12:13:04;97855.28;;;22.49;66.97
68476;BME280;55464;48.266;14.188;2023-07-13T12:15:40;97853.38;;;22.42;67.95
68476;BME280;55464;48.266;14.188;2023-07-13T12:18:13;97834.84;;;22.48;68.15
68476;BME280;55464;48.266;14.188;2023-07-13T12:20:39;97837.19;;;22.53;68.17
68476;BME280;55464;48.266;14.188;2023-07-13T12:23:29;97835.47;;;22.59;67.08
68476;BME280;55464;48.266;14.188;2023-07-13T12:25:57;97839.28;;;22.73;68.70
68476;BME280;55464;48.266;14.188;2023-07-13T12:28:33;97835.53;;;22.83;67.92
68476;BME280;55464;48.266;14.188;2023-07-13T12:31:00;97831.47;;;22.84;67.64
68476;BME280;55464;48.266;14.188;2023-07-13T12:33:28;97831.47;;;22.84;67.92
68476;BME280;55464;48.266;14.188;2023-07-13T12:35:54;97831.22;;;23.02;66.02
68476;BME280;55464;48.266;14.188;2023-07-13T12:38:21;97827.56;;;23.05;64.91
68476;BME280;55464;48.266;14.188;2023-07-13T12:40:50;97819.38;;;23.14;60.87
68476;BME280;55464;48.266;14.188;2023-07-13T12:43:16;97814.06;;;23.20;58.28
68476;BME280;55464;48.266;14.188;2023-07-13T12:46:02;97813.06;;;23.07;59.10
68476;BME280;55464;48.266;14.188;2023-07-13T12:48:28;97813.00;;;23.10;57.36
68476;BME280;55464;48.266;14.188;2023-07-13T12:50:55;97822.69;;;23.09;59.08
68476;BME280;55464;48.266;14.188;2023-07-13T12:53:23;97795.88;;;23.01;58.96
68476;BME280;55464;48.266;14.188;2023-07-13T12:55:55;97799.03;;;23.07;59.62
68476;BME280;55464;48.266;14.188;2023-07-13T12:58:32;97806.69;;;23.26;58.89
68476;BME280;55464;48.266;14.188;2023-07-13T13:01:02;97807.75;;;23.36;58.67
68476;BME280;55464;48.266;14.188;2023-07-13T13:03:33;97806.81;;;23.43;58.43
68476;BME280;55464;48.266;14.188;2023-07-13T13:06:01;97812.59;;;23.55;58.05
68476;BME280;55464;48.266;14.188;2023-07-13T13:08:29;97821.25;;;23.65;58.09
68476;BME280;55464;48.266;14.188;2023-07-13T13:10:55;97815.63;;;23.65;58.53
68476;BME280;55464;48.266;14.188;2023-07-13T13:13:20;97794.19;;;23.51;59.22
68476;BME280;55464;48.266;14.188;2023-07-13T13:15:46;97809.22;;;23.64;57.25
68476;BME280;55464;48.266;14.188;2023-07-13T13:18:20;97810.44;;;23.63;57.41
68476;BME280;55464;48.266;14.188;2023-07-13T13:20:47;97801.56;;;23.65;57.87
68476;BME280;55464;48.266;14.188;2023-07-13T13:23:14;97806.97;;;23.55;56.45